Time;durP1;ratioP1;P1;durP2;ratioP2;P2;SDS_P1;SDS_P2;PMS_P1;PMS_P2;Temp;Humidity;BMP_temperature;BMP_pressure;BME280_temperature;BME280_humidity;BME280_pressure;Samples;Min_cycle;Max_cycle;Signal;HPM_P1;HPM_P2
2021/03/10 00:02:28;;;;;;;37.50;20.20;;;;;;;-139.48;100.00;61774.03;4995292;28;20066;-68
2021/03/10 00:05:12;;;;;;;35.75;20.30;;;;;;;-139.48;100.00;61774.03;4980167;28;20108;-67
2021/03/10 00:07:56;;;;;;;37.83;19.30;;;;;;;-139.48;100.00;61774.03;4994155;28;20084;-68
2021/03/10 00:10:40;;;;;;;37.17;20.17;;;;;;;-139.48;100.00;61774.03;4995003;28;20049;-68
2021/03/10 00:13:24;;;;;;;37.13;20.10;;;;;;;-139.48;100.00;61774.03;4994073;28;20049;-68
2021/03/10 00:16:09;;;;;;;33.60;18.30;;;;;;;-139.48;100.00;61774.03;4993717;28;20052;-69
2021/03/10 00:18:53;;;;;;;;;;;;;;;-139.48;100.00;61774.03;4994346;28;20148;-68
2021/03/10 00:21:38;;;;;;;34.10;19.88;;;;;;;-139.48;100.00;61774.03;4993964;28;19936;-68
2021/03/10 00:24:21;;;;;;;38.40;20.48;;;;;;;-139.48;100.00;61774.03;4993506;28;20169;-69
2021/03/10 00:27:06;;;;;;;37.05;19.58;;;;;;;-139.48;100.00;61774.03;4980161;28;20057;-67
2021/03/10 00:29:54;;;;;;;38.92;21.08;;;;;;;-139.48;100.00;61774.03;4994743;28;20097;-68
2021/03/10 00:32:39;;;;;;;44.22;21.80;;;;;;;-139.48;100.00;61774.03;4993707;28;20041;-69
2021/03/10 00:35:23;;;;;;;40.75;19.83;;;;;;;-139.48;100.00;61774.03;4994338;28;20455;-69
2021/03/10 00:38:07;;;;;;;35.78;19.98;;;;;;;-139.48;100.00;61774.03;4980183;28;20518;-69
2021/03/10 00:40:51;;;;;;;40.58;22.30;;;;;;;-139.48;100.00;61774.03;4993556;28;20128;-69
2021/03/10 00:43:35;;;;;;;42.97;21.45;;;;;;;-139.48;100.00;61774.03;4992879;28;20053;-69
2021/03/10 00:46:20;;;;;;;39.38;22.63;;;;;;;-139.48;100.00;61774.03;4993205;28;20097;-69
2021/03/10 00:49:03;;;;;;;39.28;20.85;;;;;;;-139.48;100.00;61774.03;4993446;28;20463;-69
2021/03/10 00:51:47;;;;;;;40.05;22.00;;;;;;;-139.48;100.00;61774.03;4993613;28;20522;-69
2021/03/10 00:54:32;;;;;;;42.42;21.73;;;;;;;-139.48;100.00;61774.03;4994152;28;20048;-69
2021/03/10 00:57:16;;;;;;;43.92;22.10;;;;;;;-139.48;100.00;61774.03;4993376;28;20050;-69
2021/03/10 01:00:01;;;;;;;38.63;21.30;;;;;;;-139.48;100.00;61774.03;4994440;28;20053;-69
2021/03/10 01:02:45;;;;;;;41.80;22.00;;;;;;;-139.48;100.00;61774.03;4993246;28;20048;-69
2021/03/10 01:05:29;;;;;;;40.72;22.48;;;;;;;-139.48;100.00;61774.03;4992871;28;20104;-69
2021/03/10 01:08:13;;;;;;;38.25;22.23;;;;;;;-139.48;100.00;61774.03;4994103;28;20140;-69
2021/03/10 01:10:57;;;;;;;39.38;21.70;;;;;;;-139.48;100.00;61774.03;4993142;28;20577;-69
2021/03/10 01:13:42;;;;;;;45.47;21.67;;;;;;;-139.48;100.00;61774.03;4994171;28;20045;-69
2021/03/10 01:16:26;;;;;;;45.33;23.90;;;;;;;-139.48;100.00;61774.03;4993826;28;20455;-69
2021/03/10 01:19:10;;;;;;;45.20;23.13;;;;;;;-139.48;100.00;61774.03;4992795;28;20061;-69
2021/03/10 01:21:55;;;;;;;37.53;20.88;;;;;;;-139.48;100.00;61774.03;4993080;28;20049;-69
2021/03/10 01:24:39;;;;;;;38.42;22.25;;;;;;;-139.48;100.00;61774.03;4993782;28;20065;-69
2021/03/10 01:27:24;;;;;;;44.58;23.52;;;;;;;-139.48;100.00;61774.03;4993942;28;20048;-69
2021/03/10 01:30:12;;;;;;;44.67;22.95;;;;;;;-139.48;100.00;61774.03;4992754;28;20181;-69
2021/03/10 01:32:57;;;;;;;40.35;22.40;;;;;;;-139.48;100.00;61774.03;4992885;28;20046;-69
2021/03/10 01:35:41;;;;;;;44.00;23.15;;;;;;;-139.48;100.00;61774.03;4993683;28;20494;-69
2021/03/10 01:38:25;;;;;;;41.25;21.52;;;;;;;-139.48;100.00;61774.03;4993889;28;20045;-69
2021/03/10 01:41:12;;;;;;;40.17;22.83;;;;;;;-139.48;100.00;61774.03;4993859;28;20045;-69
2021/03/10 01:43:56;;;;;;;42.15;23.33;;;;;;;-139.48;100.00;61774.03;4992758;28;20057;-69
2021/03/10 01:46:40;;;;;;;39.60;21.77;;;;;;;-139.48;100.00;61774.03;4993874;28;20581;-69
2021/03/10 01:49:25;;;;;;;43.90;21.75;;;;;;;-139.48;100.00;61774.03;4992811;28;20049;-69
2021/03/10 01:52:10;;;;;;;40.67;22.75;;;;;;;-139.48;100.00;61774.03;4993713;28;20415;-69
2021/03/10 01:54:54;;;;;;;40.10;21.10;;;;;;;-139.48;100.00;61774.03;4995931;28;20053;-69
2021/03/10 01:57:40;;;;;;;48.53;24.77;;;;;;;-139.48;100.00;61774.03;4996655;28;20404;-69
2021/03/10 02:00:25;;;;;;;46.33;24.08;;;;;;;-139.48;100.00;61774.03;4997807;28;20103;-69
2021/03/10 02:03:09;;;;;;;44.38;23.63;;;;;;;-139.48;100.00;61774.03;4996280;28;20060;-69
2021/03/10 02:05:54;;;;;;;46.90;25.17;;;;;;;-139.48;100.00;61774.03;4996074;28;20041;-69
2021/03/10 02:08:54;;;;;;;43.22;22.73;;;;;;;-139.48;100.00;61774.03;4997405;28;20053;-69
2021/03/10 02:11:51;;;;;;;45.50;23.25;;;;;;;-139.48;100.00;61774.03;4997142;28;20049;-69
2021/03/10 02:15:07;;;;;;;40.40;22.85;;;;;;;-139.48;100.00;61774.03;4996019;28;20123;-69
2021/03/10 02:18:01;;;;;;;43.60;23.40;;;;;;;-139.48;100.00;61774.03;4997179;28;20048;-69
2021/03/10 02:20:47;;;;;;;42.22;23.02;;;;;;;-139.48;100.00;61774.03;4995915;28;20048;-69
2021/03/10 02:24:03;;;;;;;45.95;24.30;;;;;;;-139.48;100.00;61774.03;4996880;28;20064;-69
2021/03/10 02:27:02;;;;;;;37.47;20.67;;;;;;;-139.48;100.00;61774.03;4995856;28;20042;-69
2021/03/10 02:29:46;;;;;;;43.42;24.52;;;;;;;-139.48;100.00;61774.03;4997035;28;20050;-69
2021/03/10 02:32:34;;;;;;;46.17;23.27;;;;;;;-139.48;100.00;61774.03;4995713;28;20613;-70
2021/03/10 02:35:19;;;;;;;44.35;23.90;;;;;;;-139.48;100.00;61774.03;4995610;28;20089;-69
2021/03/10 02:38:05;;;;;;;46.72;22.48;;;;;;;-139.48;100.00;61774.03;4995929;28;20089;-70
2021/03/10 02:40:52;;;;;;;40.40;21.23;;;;;;;-139.48;100.00;61774.03;4995816;28;20505;-69
2021/03/10 02:43:37;;;;;;;40.65;22.08;;;;;;;-139.48;100.00;61774.03;4995550;28;20057;-69
2021/03/10 02:46:22;;;;;;;41.03;21.05;;;;;;;-139.48;100.00;61774.03;4995570;28;20132;-69
2021/03/10 02:49:09;;;;;;;;;;;;;;;-139.48;100.00;61774.03;4996789;28;20053;-66
2021/03/10 02:51:55;;;;;;;40.53;22.60;;;;;;;-139.48;100.00;61774.03;4995514;28;19937;-69
2021/03/10 02:57:26;;;;;;;45.63;24.30;;;;;;;-139.48;100.00;61774.03;4995583;28;20069;-67
2021/03/10 03:00:17;;;;;;;41.97;23.80;;;;;;;-139.48;100.00;61774.03;4995438;28;20510;-66
2021/03/10 03:03:02;;;;;;;42.30;23.50;;;;;;;-139.48;100.00;61774.03;4996434;28;20049;-65
2021/03/10 03:05:46;;;;;;;47.95;24.35;;;;;;;-139.48;100.00;61774.03;5005449;28;20057;-66
2021/03/10 03:08:30;;;;;;;44.40;24.05;;;;;;;-139.48;100.00;61774.03;5015943;28;20068;-65
2021/03/10 03:11:14;;;;;;;50.47;24.73;;;;;;;-139.48;100.00;61774.03;5015562;28;20465;-66
2021/03/10 03:14:01;;;;;;;47.72;24.95;;;;;;;-139.48;100.00;61774.03;5014605;28;20581;-66
2021/03/10 03:16:47;;;;;;;49.20;25.13;;;;;;;-139.48;100.00;61774.03;5014704;28;20193;-66
2021/03/10 03:19:32;;;;;;;48.08;25.40;;;;;;;-139.48;100.00;61774.03;5015923;28;20115;-66
2021/03/10 03:22:16;;;;;;;45.47;23.42;;;;;;;-139.48;100.00;61774.03;5015469;28;20044;-66
2021/03/10 03:25:02;;;;;;;46.95;24.33;;;;;;;-139.48;100.00;61774.03;5001885;28;20049;-66
2021/03/10 03:27:49;;;;;;;40.90;22.10;;;;;;;-139.48;100.00;61774.03;5016596;28;20126;-66
2021/03/10 03:30:36;;;;;;;45.25;24.45;;;;;;;-139.48;100.00;61774.03;5001311;28;20138;-65
2021/03/10 03:33:30;;;;;;;50.45;25.98;;;;;;;-139.48;100.00;61774.03;5015541;28;20048;-65
2021/03/10 03:36:14;;;;;;;48.70;25.92;;;;;;;-139.48;100.00;61774.03;5001291;28;20490;-64
2021/03/10 03:39:03;;;;;;;46.58;26.42;;;;;;;-139.48;100.00;61774.03;5000592;28;20565;-66
2021/03/10 03:41:55;;;;;;;43.53;25.40;;;;;;;-139.48;100.00;61774.03;5014443;28;20099;-65
2021/03/10 03:44:39;;;;;;;44.42;24.63;;;;;;;-139.48;100.00;61774.03;5013903;28;20135;-66
2021/03/10 03:47:24;;;;;;;44.42;24.95;;;;;;;-139.48;100.00;61774.03;5014269;28;20594;-65
2021/03/10 03:50:11;;;;;;;49.60;26.05;;;;;;;-139.48;100.00;61774.03;5015088;28;20100;-67
2021/03/10 03:52:55;;;;;;;52.45;26.90;;;;;;;-139.48;100.00;61774.03;5013940;28;20141;-66
2021/03/10 03:55:43;;;;;;;49.40;27.05;;;;;;;-139.48;100.00;61774.03;5013856;28;20176;-66
2021/03/10 03:58:27;;;;;;;47.47;24.88;;;;;;;-139.48;100.00;61774.03;4999898;28;20112;-66
2021/03/10 04:01:11;;;;;;;50.58;26.55;;;;;;;-139.48;100.00;61774.03;5014906;28;20053;-66
2021/03/10 04:03:55;;;;;;;51.08;25.52;;;;;;;-139.48;100.00;61774.03;5013882;28;20100;-66
2021/03/10 04:06:45;;;;;;;46.78;26.67;;;;;;;-139.48;100.00;61774.03;5014736;28;20048;-65
2021/03/10 04:09:29;;;;;;;47.35;24.75;;;;;;;-139.48;100.00;61774.03;5013805;28;20131;-66
2021/03/10 04:12:14;;;;;;;49.33;25.95;;;;;;;-139.48;100.00;61774.03;5013794;28;20049;-65
2021/03/10 04:14:58;;;;;;;54.58;25.73;;;;;;;-139.48;100.00;61774.03;4999491;28;20045;-65
2021/03/10 04:17:41;;;;;;;47.45;25.65;;;;;;;-139.48;100.00;61774.03;4998869;28;20048;-65
2021/03/10 04:20:26;;;;;;;45.88;24.65;;;;;;;-139.48;100.00;61774.03;5013423;28;20465;-66
2021/03/10 04:23:09;;;;;;;49.13;26.17;;;;;;;-139.48;100.00;61774.03;5013603;28;20188;-66
2021/03/10 04:25:53;;;;;;;50.17;26.83;;;;;;;-139.48;100.00;61774.03;5014175;28;20053;-65
2021/03/10 04:28:37;;;;;;;49.90;26.40;;;;;;;-139.48;100.00;61774.03;5013450;28;20478;-66
2021/03/10 04:31:21;;;;;;;50.10;26.38;;;;;;;-139.48;100.00;61774.03;5014161;28;20044;-66
2021/03/10 04:34:05;;;;;;;56.67;28.27;;;;;;;-139.48;100.00;61774.03;5014089;28;20053;-65
2021/03/10 04:36:50;;;;;;;52.22;26.67;;;;;;;-139.48;100.00;61774.03;5013009;28;20053;-65
2021/03/10 04:39:34;;;;;;;50.50;26.33;;;;;;;-139.48;100.00;61774.03;5014043;28;20056;-66
2021/03/10 04:42:18;;;;;;;56.03;26.75;;;;;;;-139.48;100.00;61774.03;5014313;28;20407;-66
2021/03/10 04:45:03;;;;;;;47.53;25.60;;;;;;;-139.48;100.00;61774.03;5013791;28;20049;-65
2021/03/10 04:47:48;;;;;;;55.00;28.10;;;;;;;-139.48;100.00;61774.03;5013223;28;20045;-66
2021/03/10 04:50:32;;;;;;;54.53;28.33;;;;;;;-139.48;100.00;61774.03;5013179;28;20103;-66
2021/03/10 04:53:16;;;;;;;50.63;26.48;;;;;;;-139.48;100.00;61774.03;5012890;28;20586;-65
2021/03/10 04:56:00;;;;;;;50.58;27.63;;;;;;;-139.48;100.00;61774.03;5012646;28;20048;-66
2021/03/10 04:58:44;;;;;;;53.60;27.35;;;;;;;-139.48;100.00;61774.03;5013924;28;20045;-66
2021/03/10 05:01:28;;;;;;;;;;;;;;;-139.48;100.00;61774.03;5013316;28;20060;-66
2021/03/10 05:04:12;;;;;;;47.30;25.87;;;;;;;-139.48;100.00;61774.03;5014182;28;19971;-66
2021/03/10 05:06:56;;;;;;;50.35;27.10;;;;;;;-139.48;100.00;61774.03;5013549;28;20080;-66
2021/03/10 05:09:40;;;;;;;50.85;27.85;;;;;;;-139.48;100.00;61774.03;5013545;28;20438;-66
2021/03/10 05:12:29;;;;;;;50.78;28.08;;;;;;;-139.48;100.00;61774.03;5012764;28;20097;-64
2021/03/10 05:15:13;;;;;;;52.63;27.30;;;;;;;-139.48;100.00;61774.03;5013354;28;20191;-66
2021/03/10 05:17:57;;;;;;;51.28;27.10;;;;;;;-139.48;100.00;61774.03;5012641;28;20180;-66
2021/03/10 05:20:41;;;;;;;57.58;27.83;;;;;;;-139.48;100.00;61774.03;5012765;28;20056;-65
2021/03/10 05:23:26;;;;;;;50.90;27.60;;;;;;;-139.48;100.00;61774.03;5013337;28;20092;-66
2021/03/10 05:26:10;;;;;;;53.17;28.80;;;;;;;-139.48;100.00;61774.03;5013222;28;20092;-66
2021/03/10 05:28:55;;;;;;;50.80;26.88;;;;;;;-139.48;100.00;61774.03;5017138;28;20064;-66
2021/03/10 05:31:39;;;;;;;53.35;28.20;;;;;;;-139.48;100.00;61774.03;5019820;28;20175;-66
2021/03/10 05:34:23;;;;;;;62.03;28.98;;;;;;;-139.48;100.00;61774.03;5018762;28;20108;-66
2021/03/10 05:37:06;;;;;;;57.60;28.00;;;;;;;-139.48;100.00;61774.03;5019132;28;20053;-66
2021/03/10 05:39:50;;;;;;;53.67;27.42;;;;;;;-139.48;100.00;61774.03;5018762;28;20052;-66
2021/03/10 05:42:39;;;;;;;53.05;28.75;;;;;;;-139.48;100.00;61774.03;5005058;28;20518;-66
2021/03/10 05:45:23;;;;;;;54.70;27.95;;;;;;;-139.48;100.00;61774.03;5004660;28;20092;-66
2021/03/10 05:48:08;;;;;;;53.67;28.60;;;;;;;-139.48;100.00;61774.03;5019968;28;20560;-65
2021/03/10 05:50:52;;;;;;;54.28;28.00;;;;;;;-139.48;100.00;61774.03;5019368;28;20414;-65
2021/03/10 05:53:38;;;;;;;59.22;30.17;;;;;;;-139.48;100.00;61774.03;5020296;28;20052;-64
2021/03/10 05:56:22;;;;;;;58.17;29.75;;;;;;;-139.48;100.00;61774.03;5019067;28;20049;-66
2021/03/10 05:59:07;;;;;;;55.33;26.58;;;;;;;-139.48;100.00;61774.03;5020091;28;20052;-65
2021/03/10 06:01:50;;;;;;;56.35;29.38;;;;;;;-139.48;100.00;61774.03;5019555;28;20419;-65
2021/03/10 06:04:42;;;;;;;55.65;29.10;;;;;;;-139.48;100.00;61774.03;5020185;28;20052;-66
2021/03/10 06:07:27;;;;;;;60.50;30.15;;;;;;;-139.48;100.00;61774.03;5018742;28;20415;-65
2021/03/10 06:10:11;;;;;;;60.03;31.02;;;;;;;-139.48;100.00;61774.03;5019821;28;20053;-65
2021/03/10 06:12:55;;;;;;;64.40;30.80;;;;;;;-139.48;100.00;61774.03;5019172;28;20050;-66
2021/03/10 06:15:41;;;;;;;59.70;29.35;;;;;;;-139.48;100.00;61774.03;5018583;28;20045;-64
2021/03/10 06:18:29;;;;;;;58.17;30.55;;;;;;;-139.48;100.00;61774.03;5019720;28;20469;-66
2021/03/10 06:21:16;;;;;;;61.20;30.50;;;;;;;-139.48;100.00;61774.03;5018802;28;20057;-66
2021/03/10 06:24:01;;;;;;;62.85;31.60;;;;;;;-139.48;100.00;61774.03;5018596;28;20410;-66
2021/03/10 06:26:53;;;;;;;66.63;32.08;;;;;;;-139.48;100.00;61774.03;5018128;28;20076;-67
2021/03/10 06:29:37;;;;;;;63.60;30.88;;;;;;;-139.48;100.00;61774.03;5018510;28;20076;-66
2021/03/10 06:32:21;;;;;;;63.42;32.17;;;;;;;-139.48;100.00;61774.03;5018489;28;20045;-66
2021/03/10 06:35:06;;;;;;;63.42;30.70;;;;;;;-139.48;100.00;61774.03;5018106;28;20180;-66
2021/03/10 06:37:50;;;;;;;67.20;32.72;;;;;;;-139.48;100.00;61774.03;5018468;28;20052;-67
2021/03/10 06:40:34;;;;;;;62.55;32.33;;;;;;;-139.48;100.00;61774.03;5015129;28;20107;-66
2021/03/10 06:43:20;;;;;;;60.42;32.17;;;;;;;-139.48;100.00;61774.03;5015001;28;20088;-65
2021/03/10 06:46:18;;;;;;;70.00;34.22;;;;;;;-139.48;100.00;61774.03;5015049;28;20545;-65
2021/03/10 06:49:03;;;;;;;61.15;31.60;;;;;;;-139.48;100.00;61774.03;5015125;28;20441;-66
2021/03/10 06:51:55;;;;;;;61.88;32.15;;;;;;;-139.48;100.00;61774.03;5015921;28;20096;-67
2021/03/10 06:54:44;;;;;;;62.35;32.88;;;;;;;-139.48;100.00;61774.03;5015325;28;20056;-66
2021/03/10 06:57:28;;;;;;;67.78;33.63;;;;;;;-139.48;100.00;61774.03;5014849;28;20048;-66
2021/03/10 07:00:19;;;;;;;;;;;;;;;-139.48;100.00;61774.03;5016837;28;20103;-65
2021/03/10 07:03:04;;;;;;;66.57;33.53;;;;;;;-139.48;100.00;61774.03;5014913;28;19947;-67
2021/03/10 07:05:48;;;;;;;68.25;34.92;;;;;;;-139.48;100.00;61774.03;5014754;28;20557;-65
2021/03/10 07:08:34;;;;;;;63.92;33.88;;;;;;;-139.48;100.00;61774.03;5014988;28;20049;-66
2021/03/10 07:11:18;;;;;;;70.28;34.75;;;;;;;-139.48;100.00;61774.03;5014537;28;20121;-67
2021/03/10 07:14:03;;;;;;;69.07;34.55;;;;;;;-139.48;100.00;61774.03;5015678;28;20134;-67
2021/03/10 07:16:47;;;;;;;68.03;33.22;;;;;;;-139.48;100.00;61774.03;5015337;28;20049;-67
2021/03/10 07:19:31;;;;;;;64.68;34.40;;;;;;;-139.48;100.00;61774.03;5014461;28;20053;-67
2021/03/10 07:22:35;;;;;;;64.32;32.10;;;;;;;-139.48;100.00;61774.03;5015520;28;20095;-67
2021/03/10 07:25:30;;;;;;;62.67;32.85;;;;;;;-139.48;100.00;61774.03;5014496;28;20131;-66
2021/03/10 07:28:15;;;;;;;62.85;32.78;;;;;;;-139.48;100.00;61774.03;5014217;28;20064;-66
2021/03/10 07:30:59;;;;;;;69.65;34.80;;;;;;;-139.48;100.00;61774.03;5014385;28;20080;-67
2021/03/10 07:33:54;;;;;;;72.15;33.65;;;;;;;-139.48;100.00;61774.03;5015399;28;20063;-66
2021/03/10 07:36:42;;;;;;;61.17;32.60;;;;;;;-139.48;100.00;61774.03;5014281;28;20510;-65
2021/03/10 07:39:32;;;;;;;64.70;33.90;;;;;;;-139.48;100.00;61774.03;5014024;28;20052;-66
2021/03/10 07:42:18;;;;;;;69.20;35.65;;;;;;;-139.48;100.00;61774.03;5015224;28;20397;-67
2021/03/10 07:45:03;;;;;;;66.93;35.10;;;;;;;-139.48;100.00;61774.03;5014671;28;20128;-66
2021/03/10 07:47:57;;;;;;;62.85;32.28;;;;;;;-139.48;100.00;61774.03;5015132;28;20482;-66
2021/03/10 07:50:44;;;;;;;64.28;32.00;;;;;;;-139.48;100.00;61774.03;5013776;28;20525;-66
2021/03/10 07:53:38;;;;;;;63.58;33.97;;;;;;;-139.48;100.00;61774.03;5014997;28;20084;-66
2021/03/10 07:56:28;;;;;;;59.88;30.73;;;;;;;-139.48;100.00;61774.03;5013558;28;20518;-66
2021/03/10 07:59:15;;;;;;;65.22;32.22;;;;;;;-139.48;100.00;61774.03;5013780;28;20060;-66
2021/03/10 08:02:01;;;;;;;63.33;31.85;;;;;;;-139.48;100.00;61774.03;5013554;28;20099;-65
2021/03/10 08:05:00;;;;;;;66.40;33.63;;;;;;;-139.48;100.00;61774.03;5013563;28;20119;-66
2021/03/10 08:07:44;;;;;;;65.68;32.75;;;;;;;-139.48;100.00;61774.03;5014316;28;20125;-65
2021/03/10 08:10:28;;;;;;;63.45;31.58;;;;;;;-139.48;100.00;61774.03;5013630;28;20072;-65
2021/03/10 08:13:21;;;;;;;56.53;27.52;;;;;;;-139.48;100.00;61774.03;5013566;28;20183;-66
2021/03/10 08:16:08;;;;;;;61.73;31.57;;;;;;;-139.48;100.00;61774.03;5013455;28;20084;-66
2021/03/10 08:18:52;;;;;;;68.05;33.78;;;;;;;-139.48;100.00;61774.03;5013484;28;20088;-66
2021/03/10 08:21:46;;;;;;;63.00;33.38;;;;;;;-139.48;100.00;61774.03;5013382;28;20465;-66
2021/03/10 08:24:30;;;;;;;58.75;30.77;;;;;;;-139.48;100.00;61774.03;5013437;28;20049;-66
2021/03/10 08:27:34;;;;;;;60.70;30.33;;;;;;;-139.48;100.00;61774.03;5014000;28;20407;-65
2021/03/10 08:30:28;;;;;;;60.45;31.25;;;;;;;-139.48;100.00;61774.03;5013230;28;20172;-65
2021/03/10 08:33:12;;;;;;;57.80;31.38;;;;;;;-139.48;100.00;61774.03;5013908;28;20079;-65
2021/03/10 08:35:57;;;;;;;58.50;29.02;;;;;;;-139.48;100.00;61774.03;5013855;28;20053;-65
2021/03/10 08:38:41;;;;;;;64.28;31.88;;;;;;;-139.48;100.00;61774.03;4998958;28;20084;-66
2021/03/10 08:41:25;;;;;;;64.25;32.88;;;;;;;-139.48;100.00;61774.03;5012880;28;20052;-66
2021/03/10 08:44:11;;;;;;;60.75;32.47;;;;;;;-139.48;100.00;61774.03;5013836;28;20080;-66
2021/03/10 08:46:56;;;;;;;59.22;31.42;;;;;;;-139.48;100.00;61774.03;5013619;28;20096;-66
2021/03/10 08:49:42;;;;;;;46.72;25.70;;;;;;;-139.48;100.00;61774.03;5012986;28;20100;-66
2021/03/10 08:52:28;;;;;;;57.58;31.00;;;;;;;-139.48;100.00;61774.03;5012623;28;20053;-66
2021/03/10 08:55:11;;;;;;;63.88;32.08;;;;;;;-139.48;100.00;61774.03;5037579;22;20100;-65
2021/03/10 08:57:58;;;;;;;58.10;30.42;;;;;;;-139.48;100.00;61774.03;4998565;28;20156;-64
2021/03/10 09:00:42;;;;;;;59.88;32.65;;;;;;;-139.48;100.00;61774.03;5013598;28;20044;-63
2021/03/10 09:03:27;;;;;;;52.47;25.35;;;;;;;-139.48;100.00;61774.03;5013027;28;20048;-64
2021/03/10 09:06:11;;;;;;;56.50;31.80;;;;;;;-139.48;100.00;61774.03;4998551;28;20045;-63
2021/03/10 09:08:55;;;;;;;;;;;;;;;-139.48;100.00;61774.03;5014158;28;20512;-64
2021/03/10 09:11:39;;;;;;;54.30;29.15;;;;;;;-139.48;100.00;61774.03;5013794;28;19944;-64
2021/03/10 09:14:23;;;;;;;56.40;30.13;;;;;;;-139.48;100.00;61774.03;4998793;28;20045;-64
2021/03/10 09:17:08;;;;;;;62.33;32.97;;;;;;;-139.48;100.00;61774.03;4998452;28;20096;-65
2021/03/10 09:19:52;;;;;;;59.85;30.95;;;;;;;-139.48;100.00;61774.03;4998311;28;20053;-64
2021/03/10 09:22:43;;;;;;;55.10;31.73;;;;;;;-139.48;100.00;61774.03;4998706;28;20052;-64
2021/03/10 09:25:30;;;;;;;52.03;28.70;;;;;;;-139.48;100.00;61774.03;5013391;28;20188;-64
2021/03/10 09:28:15;;;;;;;52.20;30.02;;;;;;;-139.48;100.00;61774.03;4998323;28;20108;-65
2021/03/10 09:30:59;;;;;;;55.33;29.80;;;;;;;-139.48;100.00;61774.03;5013515;28;20049;-64
2021/03/10 09:33:44;;;;;;;61.53;31.83;;;;;;;-139.48;100.00;61774.03;4998658;28;20053;-64
2021/03/10 09:36:28;;;;;;;57.28;29.73;;;;;;;-139.48;100.00;61774.03;4998436;28;20052;-65
2021/03/10 09:39:14;;;;;;;53.28;29.88;;;;;;;-139.48;100.00;61774.03;5013497;28;20116;-64
2021/03/10 09:42:03;;;;;;;50.55;29.63;;;;;;;-139.48;100.00;61774.03;5013343;28;20523;-64
2021/03/10 09:44:50;;;;;;;46.88;23.17;;;;;;;-139.48;100.00;61774.03;4998301;28;20041;-65
2021/03/10 09:47:34;;;;;;;51.75;29.30;;;;;;;-139.48;100.00;61774.03;4998504;28;20073;-64
2021/03/10 09:50:33;;;;;;;51.33;29.55;;;;;;;-139.48;100.00;61774.03;5013435;28;20120;-64
2021/03/10 09:53:21;;;;;;;60.40;28.50;;;;;;;-139.48;100.00;61774.03;4998168;28;20040;-64
2021/03/10 09:56:10;;;;;;;52.33;30.88;;;;;;;-139.48;100.00;61774.03;4998043;28;20100;-65
2021/03/10 09:58:57;;;;;;;39.35;18.85;;;;;;;-139.48;100.00;61774.03;4998197;28;20053;-64
2021/03/10 10:01:45;;;;;;;51.25;28.05;;;;;;;-139.48;100.00;61774.03;5012991;28;20123;-65
2021/03/10 10:04:29;;;;;;;55.35;31.10;;;;;;;-139.48;100.00;61774.03;5013041;28;20045;-64
2021/03/10 10:07:13;;;;;;;52.05;29.90;;;;;;;-139.48;100.00;61774.03;5012871;28;20109;-64
2021/03/10 10:09:57;;;;;;;;;;;;;;;-139.48;100.00;61774.03;5013890;28;20513;-64
2021/03/10 10:12:46;;;;;;;53.60;28.88;;;;;;;-139.48;100.00;61774.03;4998359;28;19920;-64
2021/03/10 10:15:34;;;;;;;50.40;30.20;;;;;;;-139.48;100.00;61774.03;5014094;28;20096;-65
2021/03/10 10:18:19;;;;;;;53.85;31.00;;;;;;;-139.48;100.00;61774.03;5002224;28;20056;-64
2021/03/10 10:21:04;;;;;;;53.38;29.83;;;;;;;-139.48;100.00;61774.03;5016752;28;20054;-65
2021/03/10 10:23:48;;;;;;;53.33;30.98;;;;;;;-139.48;100.00;61774.03;5001617;28;20177;-65
2021/03/10 10:26:32;;;;;;;46.03;22.83;;;;;;;-139.48;100.00;61774.03;5016367;28;20056;-64
2021/03/10 10:29:16;;;;;;;56.78;31.77;;;;;;;-139.48;100.00;61774.03;5001683;28;20099;-65
2021/03/10 10:32:00;;;;;;;44.97;24.58;;;;;;;-139.48;100.00;61774.03;5001723;28;20129;-64
2021/03/10 10:34:44;;;;;;;;;;;;;;;-139.48;100.00;61774.03;5016973;28;20057;-65
2021/03/10 10:37:28;;;;;;;50.08;29.33;;;;;;;-139.48;100.00;61774.03;5016165;28;20020;-65
2021/03/10 10:40:15;;;;;;;48.42;28.00;;;;;;;-139.48;100.00;61774.03;5001307;28;20508;-65
2021/03/10 10:42:59;;;;;;;49.00;28.20;;;;;;;-139.48;100.00;61774.03;5001733;28;20486;-65
2021/03/10 10:45:44;;;;;;;51.60;28.30;;;;;;;-139.48;100.00;61774.03;5001295;28;20080;-65
2021/03/10 10:48:28;;;;;;;48.22;27.40;;;;;;;-139.48;100.00;61774.03;5001509;28;20080;-63
2021/03/10 10:51:12;;;;;;;48.97;29.08;;;;;;;-139.48;100.00;61774.03;5016310;28;20107;-65
2021/03/10 10:53:56;;;;;;;47.90;29.35;;;;;;;-139.48;100.00;61774.03;5001049;28;20053;-65
2021/03/10 10:56:40;;;;;;;47.85;24.25;;;;;;;-139.48;100.00;61774.03;5015675;28;20636;-64
2021/03/10 10:59:24;;;;;;;53.80;26.90;;;;;;;-139.48;100.00;61774.03;5015978;28;20104;-65
2021/03/10 11:02:08;;;;;;;46.88;27.45;;;;;;;-139.48;100.00;61774.03;5000991;28;20058;-64
2021/03/10 11:04:52;;;;;;;43.03;26.23;;;;;;;-139.48;100.00;61774.03;5000843;28;20049;-65
2021/03/10 11:07:37;;;;;;;44.90;27.75;;;;;;;-139.48;100.00;61774.03;5015943;28;20116;-65
2021/03/10 11:10:21;;;;;;;50.00;27.42;;;;;;;-139.48;100.00;61774.03;5016075;28;20088;-64
2021/03/10 11:13:05;;;;;;;44.75;27.10;;;;;;;-139.48;100.00;61774.03;5015576;28;20053;-63
2021/03/10 11:15:49;;;;;;;45.88;27.60;;;;;;;-139.48;100.00;61774.03;5000580;28;20052;-64
2021/03/10 11:18:34;;;;;;;40.83;23.95;;;;;;;-139.48;100.00;61774.03;5015741;28;20053;-64
2021/03/10 11:21:18;;;;;;;43.90;25.75;;;;;;;-139.48;100.00;61774.03;5015572;28;20183;-63
2021/03/10 11:24:03;;;;;;;45.50;27.65;;;;;;;-139.48;100.00;61774.03;5000552;28;20045;-64
2021/03/10 11:26:48;;;;;;;49.80;26.90;;;;;;;-139.48;100.00;61774.03;5014770;28;20100;-64
2021/03/10 11:29:32;;;;;;;45.55;26.33;;;;;;;-139.48;100.00;61774.03;5015192;28;20053;-65
2021/03/10 11:32:16;;;;;;;47.25;27.52;;;;;;;-139.48;100.00;61774.03;5000924;28;20112;-64
2021/03/10 11:35:01;;;;;;;41.58;21.95;;;;;;;-139.48;100.00;61774.03;5015451;28;20056;-64
2021/03/10 11:37:46;;;;;;;;;;;;;;;-139.48;100.00;61774.03;5000639;28;20418;-64
2021/03/10 11:40:30;;;;;;;44.88;24.25;;;;;;;-139.48;100.00;61774.03;5000531;28;19924;-65
2021/03/10 11:43:16;;;;;;;;;;;;;;;-139.48;100.00;61774.03;5015504;28;20474;-64
2021/03/10 11:46:00;;;;;;;39.25;23.83;;;;;;;-139.48;100.00;61774.03;4986574;28;19927;-63
2021/03/10 11:48:45;;;;;;;41.70;24.25;;;;;;;-139.48;100.00;61774.03;4986636;28;20410;-63
2021/03/10 11:51:29;;;;;;;42.33;24.23;;;;;;;-139.48;100.00;61774.03;5000222;28;20056;-64
2021/03/10 11:54:14;;;;;;;42.13;23.75;;;;;;;-139.48;100.00;61774.03;5014645;28;20049;-62
2021/03/10 11:56:58;;;;;;;27.42;15.43;;;;;;;-139.48;100.00;61774.03;4999652;28;20049;-63
2021/03/10 11:59:42;;;;;;;37.63;22.30;;;;;;;-139.48;100.00;61774.03;4999713;28;20522;-65
2021/03/10 12:02:27;;;;;;;36.95;19.98;;;;;;;-139.48;100.00;61774.03;4999828;28;20111;-64
2021/03/10 12:05:12;;;;;;;39.05;22.60;;;;;;;-139.48;100.00;61774.03;4999622;28;20402;-65
2021/03/10 12:07:56;;;;;;;39.05;22.13;;;;;;;-139.48;100.00;61774.03;5015209;28;20053;-64
2021/03/10 12:10:41;;;;;;;23.98;13.40;;;;;;;-139.48;100.00;61774.03;5014834;28;20052;-64
2021/03/10 12:13:26;;;;;;;30.70;18.40;;;;;;;-139.48;100.00;61774.03;5014479;28;20561;-64
2021/03/10 12:16:10;;;;;;;26.70;17.08;;;;;;;-139.48;100.00;61774.03;4999636;28;20048;-64
2021/03/10 12:18:54;;;;;;;;;;;;;;;-139.48;100.00;61774.03;4999933;28;20084;-64
2021/03/10 12:21:38;;;;;;;23.13;13.05;;;;;;;-139.48;100.00;61774.03;5014331;28;19967;-64
2021/03/10 12:24:22;;;;;;;22.08;12.80;;;;;;;-139.48;100.00;61774.03;5014506;28;20192;-64